Time;durP1;ratioP1;P1;durP2;ratioP2;P2;SDS_P1;SDS_P2;PMS_P1;PMS_P2;Temp;Humidity;BMP_temperature;BMP_pressure;BME280_temperature;BME280_humidity;BME280_pressure;Samples;Min_cycle;Max_cycle;Signal;HPM_P1;HPM_P2
2021/11/29 00:02:23;;;;;;;20.88;8.60;;;;;;;;;;5010705;28;20173;-64
2021/11/29 00:04:52;;;;;;;22.77;9.02;;;;;;;;;;5006549;28;20195;-64
2021/11/29 00:07:20;;;;;;;17.65;8.55;;;;;;;;;;5008757;28;20081;-64
2021/11/29 00:09:49;;;;;;;18.00;8.52;;;;;;;;;;5012016;28;20549;-64
2021/11/29 00:12:17;;;;;;;20.63;8.13;;;;;;;;;;5015050;28;20149;-64
2021/11/29 00:14:46;;;;;;;17.42;8.65;;;;;;;;;;5015485;28;20509;-64
2021/11/29 00:17:14;;;;;;;18.30;8.82;;;;;;;;;;5025513;28;20065;-64
2021/11/29 00:19:44;;;;;;;17.95;8.88;;;;;;;;;;5009429;28;20042;-64
2021/11/29 00:22:12;;;;;;;22.83;8.38;;;;;;;;;;5010491;28;20042;-64
2021/11/29 00:24:41;;;;;;;20.67;8.82;;;;;;;;;;5012123;28;20049;-64
2021/11/29 00:27:09;;;;;;;17.58;8.70;;;;;;;;;;5010002;28;20489;-64
2021/11/29 00:29:38;;;;;;;23.48;8.40;;;;;;;;;;5010288;28;20512;-64
2021/11/29 00:32:07;;;;;;;12.32;7.18;;;;;;;;;;5010322;28;20123;-64
2021/11/29 00:34:35;;;;;;;17.30;7.57;;;;;;;;;;5011108;28;20074;-64
2021/11/29 00:37:05;;;;;;;16.60;6.63;;;;;;;;;;5011994;28;20046;-64
2021/11/29 00:39:33;;;;;;;14.88;7.43;;;;;;;;;;5014879;28;20493;-64
2021/11/29 00:42:02;;;;;;;16.73;7.07;;;;;;;;;;5007668;28;20390;-64
2021/11/29 00:44:30;;;;;;;17.05;7.80;;;;;;;;;;5011226;28;20144;-64
2021/11/29 00:46:59;;;;;;;15.63;7.15;;;;;;;;;;5010486;28;20050;-64
2021/11/29 00:49:27;;;;;;;18.48;7.40;;;;;;;;;;5009141;28;20108;-64
2021/11/29 00:51:55;;;;;;;14.98;7.50;;;;;;;;;;5010689;28;20050;-64
2021/11/29 00:54:25;;;;;;;16.05;7.68;;;;;;;;;;5008962;28;20128;-64
2021/11/29 00:56:53;;;;;;;20.05;8.43;;;;;;;;;;5002847;28;20042;-64
2021/11/29 00:59:22;;;;;;;18.58;8.07;;;;;;;;;;5012846;28;20074;-64
2021/11/29 01:01:50;;;;;;;16.45;7.88;;;;;;;;;;5008498;28;20584;-64
2021/11/29 01:04:19;;;;;;;13.50;7.22;;;;;;;;;;5011174;28;20537;-64
2021/11/29 01:06:47;;;;;;;16.17;7.97;;;;;;;;;;5004842;28;20077;-64
2021/11/29 01:09:16;;;;;;;16.23;7.60;;;;;;;;;;5010016;28;20160;-64
2021/11/29 01:11:45;;;;;;;16.88;7.45;;;;;;;;;;5007470;28;20046;-64
2021/11/29 01:14:15;;;;;;;21.27;8.15;;;;;;;;;;5010120;28;20088;-64
2021/11/29 01:16:43;;;;;;;15.70;6.45;;;;;;;;;;5009221;28;20045;-64
2021/11/29 01:19:12;;;;;;;18.75;8.05;;;;;;;;;;5001644;28;20065;-64
2021/11/29 01:21:40;;;;;;;16.33;7.60;;;;;;;;;;5011084;28;20056;-64
2021/11/29 01:24:08;;;;;;;16.20;6.45;;;;;;;;;;5019917;28;20049;-64
2021/11/29 01:26:37;;;;;;;15.73;7.20;;;;;;;;;;5008060;28;20434;-64
2021/11/29 01:29:07;;;;;;;12.57;6.95;;;;;;;;;;5006141;28;20061;-64
2021/11/29 01:31:35;;;;;;;18.20;8.45;;;;;;;;;;5010091;28;20046;-64
2021/11/29 01:34:04;;;;;;;14.88;7.55;;;;;;;;;;5014458;28;20053;-64
2021/11/29 01:36:32;;;;;;;18.33;7.95;;;;;;;;;;5007230;28;20391;-64
2021/11/29 01:39:00;;;;;;;15.65;7.82;;;;;;;;;;5008259;28;20053;-64
2021/11/29 01:41:48;;;;;;;14.78;6.43;;;;;;;;;;2251459;28;10024155;-64
2021/11/29 01:44:18;;;;;;;17.77;7.60;;;;;;;;;;3621350;28;10001112;-64
2021/11/29 01:46:47;;;;;;;17.95;7.82;;;;;;;;;;5023245;28;20127;-64
2021/11/29 01:49:16;;;;;;;16.10;7.45;;;;;;;;;;5009814;28;20050;-65
2021/11/29 01:51:44;;;;;;;19.00;7.22;;;;;;;;;;5001661;28;20046;-64
2021/11/29 01:54:13;;;;;;;18.85;7.78;;;;;;;;;;5008185;28;20060;-64
2021/11/29 01:56:42;;;;;;;17.70;7.03;;;;;;;;;;5022091;28;20067;-64
2021/11/29 01:59:10;;;;;;;13.52;7.22;;;;;;;;;;5009355;28;20050;-64
2021/11/29 02:01:40;;;;;;;14.95;7.25;;;;;;;;;;5009136;28;20045;-64
2021/11/29 02:04:11;;;;;;;17.10;7.15;;;;;;;;;;5008271;28;20049;-64
2021/11/29 02:06:41;;;;;;;16.23;7.20;;;;;;;;;;5009369;28;20461;-64
2021/11/29 02:09:11;;;;;;;16.80;7.38;;;;;;;;;;5015450;28;20133;-64
2021/11/29 02:11:40;;;;;;;16.20;6.90;;;;;;;;;;5008844;28;20379;-64
2021/11/29 02:14:08;;;;;;;17.80;7.75;;;;;;;;;;5014179;28;20053;-64
2021/11/29 02:16:37;;;;;;;16.05;7.50;;;;;;;;;;5011782;28;20054;-64
2021/11/29 02:19:07;;;;;;;16.23;7.65;;;;;;;;;;5010082;28;20486;-64
2021/11/29 02:21:37;;;;;;;16.27;7.70;;;;;;;;;;5007149;28;20485;-64
2021/11/29 02:24:06;;;;;;;16.88;7.82;;;;;;;;;;5000355;28;20484;-64
2021/11/29 02:26:35;;;;;;;16.58;7.70;;;;;;;;;;5006346;28;20056;-64
2021/11/29 02:29:06;;;;;;;20.77;8.90;;;;;;;;;;5005689;28;20574;-64
2021/11/29 02:31:36;;;;;;;16.63;8.20;;;;;;;;;;5008274;28;20050;-64
2021/11/29 02:34:09;;;;;;;17.17;8.50;;;;;;;;;;5007506;28;20100;-64
2021/11/29 02:36:40;;;;;;;18.88;8.15;;;;;;;;;;5008862;28;20470;-64
2021/11/29 02:39:09;;;;;;;15.35;7.10;;;;;;;;;;5013549;28;20041;-64
2021/11/29 02:41:37;;;;;;;16.38;7.72;;;;;;;;;;5009369;28;20060;-64
2021/11/29 02:44:06;;;;;;;17.38;7.18;;;;;;;;;;5009824;28;20049;-64
2021/11/29 02:46:34;;;;;;;17.30;8.00;;;;;;;;;;5010096;28;20046;-64
2021/11/29 02:49:03;;;;;;;19.83;7.43;;;;;;;;;;5008417;28;20489;-64
2021/11/29 02:51:33;;;;;;;19.25;7.63;;;;;;;;;;5006376;28;20042;-64
2021/11/29 02:54:05;;;;;;;15.50;7.28;;;;;;;;;;5013497;28;20054;-64
2021/11/29 02:56:36;;;;;;;15.73;7.45;;;;;;;;;;5009861;28;20042;-64
2021/11/29 02:59:05;;;;;;;17.63;7.68;;;;;;;;;;5012395;28;20397;-64
2021/11/29 03:01:33;;;;;;;15.45;7.72;;;;;;;;;;5009508;28;20042;-64
2021/11/29 03:04:02;;;;;;;19.15;9.05;;;;;;;;;;5007338;28;20046;-64
2021/11/29 03:06:30;;;;;;;19.75;8.73;;;;;;;;;;5009173;28;20045;-64
2021/11/29 03:08:58;;;;;;;15.60;7.95;;;;;;;;;;5006294;28;20093;-64
2021/11/29 03:11:29;;;;;;;22.20;8.48;;;;;;;;;;5009116;28;20081;-64
2021/11/29 03:13:58;;;;;;;19.30;8.95;;;;;;;;;;5005140;28;20062;-64
2021/11/29 03:16:26;;;;;;;20.55;8.25;;;;;;;;;;5008998;28;20494;-64
2021/11/29 03:18:55;;;;;;;17.52;7.70;;;;;;;;;;5005256;28;20053;-64
2021/11/29 03:21:25;;;;;;;15.77;8.25;;;;;;;;;;5007983;28;20052;-64
2021/11/29 03:23:55;;;;;;;16.90;8.50;;;;;;;;;;5006261;28;20471;-64
2021/11/29 03:26:24;;;;;;;18.25;9.00;;;;;;;;;;5009142;28;20049;-64
2021/11/29 03:28:54;;;;;;;18.35;8.50;;;;;;;;;;5007035;28;20050;-64
2021/11/29 03:31:23;;;;;;;23.60;9.50;;;;;;;;;;4999838;28;20046;-64
2021/11/29 03:33:55;;;;;;;19.05;8.32;;;;;;;;;;4981124;28;20124;-64
2021/11/29 03:36:23;;;;;;;20.17;8.85;;;;;;;;;;4982561;28;20180;-64
2021/11/29 03:38:52;;;;;;;15.32;7.93;;;;;;;;;;4988332;28;20058;-64
2021/11/29 03:41:20;;;;;;;15.93;7.45;;;;;;;;;;4987863;28;20069;-64
2021/11/29 03:43:48;;;;;;;17.05;9.43;;;;;;;;;;4988001;28;20042;-64
2021/11/29 03:46:18;;;;;;;18.27;8.80;;;;;;;;;;4982565;28;20066;-64
2021/11/29 03:48:47;;;;;;;20.83;9.48;;;;;;;;;;5001100;28;20058;-64
2021/11/29 03:51:15;;;;;;;18.80;8.70;;;;;;;;;;4990381;28;20050;-64
2021/11/29 03:53:43;;;;;;;21.08;8.95;;;;;;;;;;4989188;28;20410;-64
2021/11/29 03:56:12;;;;;;;21.45;9.73;;;;;;;;;;4986878;28;20070;-64
2021/11/29 03:58:40;;;;;;;19.90;9.15;;;;;;;;;;4988585;28;20137;-64
2021/11/29 04:01:08;;;;;;;20.20;9.38;;;;;;;;;;4988517;28;21176;-64
2021/11/29 04:03:39;;;;;;;19.23;9.45;;;;;;;;;;4989307;28;20042;-64
2021/11/29 04:06:08;;;;;;;16.27;8.25;;;;;;;;;;4985349;28;20076;-64
2021/11/29 04:08:37;;;;;;;20.27;9.35;;;;;;;;;;4989575;28;20050;-64
2021/11/29 04:11:06;;;;;;;19.70;9.02;;;;;;;;;;4991997;28;20459;-64
2021/11/29 04:13:35;;;;;;;18.08;8.82;;;;;;;;;;4975600;28;20065;-64
2021/11/29 04:16:03;;;;;;;20.00;8.15;;;;;;;;;;4991840;28;20053;-64
2021/11/29 04:18:34;;;;;;;16.60;8.88;;;;;;;;;;4991004;28;20042;-64
2021/11/29 04:21:05;;;;;;;16.02;8.75;;;;;;;;;;4986995;28;20050;-64
2021/11/29 04:23:34;;;;;;;20.85;7.68;;;;;;;;;;4992270;28;20065;-64
2021/11/29 04:26:03;;;;;;;21.08;8.20;;;;;;;;;;4986076;28;20057;-64
2021/11/29 04:28:33;;;;;;;16.40;8.18;;;;;;;;;;4990039;28;20042;-64
2021/11/29 04:31:01;;;;;;;17.38;8.85;;;;;;;;;;5007846;28;20068;-64
2021/11/29 04:33:29;;;;;;;20.67;9.13;;;;;;;;;;5011421;28;20453;-64
2021/11/29 04:35:58;;;;;;;18.33;9.05;;;;;;;;;;5011176;28;20054;-64
2021/11/29 04:38:27;;;;;;;19.17;8.82;;;;;;;;;;5011464;28;20053;-64
2021/11/29 04:40:56;;;;;;;16.80;8.40;;;;;;;;;;5004188;28;20056;-64
2021/11/29 04:43:24;;;;;;;17.00;8.52;;;;;;;;;;5008909;28;20058;-64
2021/11/29 04:45:52;;;;;;;17.42;7.28;;;;;;;;;;5014645;28;20072;-64
2021/11/29 04:48:21;;;;;;;19.38;9.05;;;;;;;;;;5011939;28;20057;-64
2021/11/29 04:50:50;;;;;;;18.88;8.35;;;;;;;;;;5010166;28;20053;-64
2021/11/29 04:53:18;;;;;;;23.05;9.52;;;;;;;;;;5011995;28;20584;-64
2021/11/29 04:55:48;;;;;;;22.83;9.98;;;;;;;;;;5011087;28;20346;-64
2021/11/29 04:58:16;;;;;;;19.48;8.88;;;;;;;;;;5012243;28;20053;-64
2021/11/29 05:00:48;;;;;;;25.92;10.23;;;;;;;;;;5011211;28;20046;-64
2021/11/29 05:03:16;;;;;;;19.63;9.95;;;;;;;;;;5011782;28;20046;-64
2021/11/29 05:05:45;;;;;;;23.20;10.63;;;;;;;;;;5008904;28;20050;-64
2021/11/29 05:08:33;;;;;;;22.40;10.18;;;;;;;;;;5011740;28;20049;-64
2021/11/29 05:11:03;;;;;;;18.45;8.88;;;;;;;;;;5009119;28;20128;-64
2021/11/29 05:13:32;;;;;;;21.50;9.82;;;;;;;;;;5013968;28;20504;-64
2021/11/29 05:16:00;;;;;;;22.25;9.38;;;;;;;;;;5010986;28;20072;-64
2021/11/29 05:18:30;;;;;;;21.38;11.07;;;;;;;;;;5011126;28;20104;-64
2021/11/29 05:20:58;;;;;;;21.20;10.45;;;;;;;;;;5013231;28;20051;-64
2021/11/29 05:23:27;;;;;;;27.17;9.85;;;;;;;;;;5013322;28;20085;-64
2021/11/29 05:25:55;;;;;;;22.35;9.98;;;;;;;;;;5010486;28;20081;-64
2021/11/29 05:28:25;;;;;;;21.02;9.65;;;;;;;;;;5007032;28;20057;-64
2021/11/29 05:30:54;;;;;;;18.48;9.13;;;;;;;;;;5008928;28;20123;-64
2021/11/29 05:33:22;;;;;;;24.80;10.15;;;;;;;;;;5010584;28;20057;-65
2021/11/29 05:35:51;;;;;;;24.02;10.55;;;;;;;;;;5007665;28;20042;-64
2021/11/29 05:38:19;;;;;;;22.33;8.95;;;;;;;;;;5009304;28;20505;-63
2021/11/29 05:40:48;;;;;;;20.52;9.75;;;;;;;;;;5008813;28;20478;-64
2021/11/29 05:43:16;;;;;;;17.90;8.82;;;;;;;;;;5006771;28;20486;-64
2021/11/29 05:45:46;;;;;;;22.05;9.32;;;;;;;;;;5004744;28;20042;-64
2021/11/29 05:48:14;;;;;;;19.25;8.98;;;;;;;;;;5008466;28;20486;-64
2021/11/29 05:50:43;;;;;;;21.73;10.13;;;;;;;;;;5005034;28;20572;-64
2021/11/29 05:53:11;;;;;;;22.08;10.10;;;;;;;;;;5002345;28;20056;-64
2021/11/29 05:55:40;;;;;;;20.35;8.52;;;;;;;;;;5007054;28;20272;-64
2021/11/29 05:58:08;;;;;;;16.58;8.10;;;;;;;;;;5011054;28;20046;-64
2021/11/29 06:00:37;;;;;;;17.65;8.45;;;;;;;;;;5012448;28;20056;-64
2021/11/29 06:03:11;;;;;;;17.70;8.85;;;;;;;;;;5008040;28;20045;-64
2021/11/29 06:05:40;;;;;;;21.40;9.40;;;;;;;;;;5005429;28;20044;-64
2021/11/29 06:08:08;;;;;;;14.65;8.15;;;;;;;;;;5008055;28;20339;-64
2021/11/29 06:10:37;;;;;;;19.80;8.25;;;;;;;;;;5005169;28;20579;-64
2021/11/29 06:13:06;;;;;;;18.30;8.80;;;;;;;;;;5009257;28;20053;-64
2021/11/29 06:15:35;;;;;;;18.73;7.70;;;;;;;;;;5001878;28;20053;-63
2021/11/29 06:18:03;;;;;;;20.02;8.90;;;;;;;;;;5006585;28;20042;-64
2021/11/29 06:20:33;;;;;;;19.08;8.57;;;;;;;;;;5007129;28;20124;-64
2021/11/29 06:23:02;;;;;;;17.50;9.43;;;;;;;;;;5000621;28;20077;-64
2021/11/29 06:25:31;;;;;;;18.05;8.07;;;;;;;;;;5005813;28;20060;-64
2021/11/29 06:28:00;;;;;;;20.40;9.57;;;;;;;;;;5002300;28;20060;-64
2021/11/29 06:30:28;;;;;;;19.30;9.48;;;;;;;;;;5005360;28;20123;-64
2021/11/29 06:32:57;;;;;;;23.00;8.65;;;;;;;;;;5003411;28;20050;-64
2021/11/29 06:35:25;;;;;;;17.63;8.75;;;;;;;;;;5001991;28;20490;-64
2021/11/29 06:38:00;;;;;;;19.15;8.70;;;;;;;;;;5001859;28;20282;-64
2021/11/29 06:40:29;;;;;;;19.88;8.75;;;;;;;;;;5001687;28;20056;-64
2021/11/29 06:42:57;;;;;;;17.67;8.25;;;;;;;;;;5005275;28;20073;-64
2021/11/29 06:45:26;;;;;;;19.73;8.45;;;;;;;;;;5008722;28;20676;-64
2021/11/29 06:47:55;;;;;;;19.20;8.25;;;;;;;;;;4999131;28;20489;-64
2021/11/29 06:50:24;;;;;;;15.77;8.23;;;;;;;;;;4998469;28;20520;-64
2021/11/29 06:52:52;;;;;;;20.75;8.20;;;;;;;;;;4995995;28;20135;-64
2021/11/29 06:55:22;;;;;;;17.92;7.70;;;;;;;;;;5006498;28;20136;-64
2021/11/29 06:57:51;;;;;;;17.67;7.97;;;;;;;;;;5005286;28;20588;-64
2021/11/29 07:00:21;;;;;;;17.58;8.15;;;;;;;;;;4998887;28;20399;-64
2021/11/29 07:02:49;;;;;;;20.48;9.52;;;;;;;;;;5005557;28;20075;-64
2021/11/29 07:05:18;;;;;;;21.40;7.97;;;;;;;;;;5004964;28;20100;-64
2021/11/29 07:07:49;;;;;;;15.93;7.78;;;;;;;;;;5005958;28;20615;-64
2021/11/29 07:10:19;;;;;;;19.73;7.82;;;;;;;;;;4997049;28;20137;-64
2021/11/29 07:12:50;;;;;;;19.25;9.35;;;;;;;;;;4999618;28;20054;-64
2021/11/29 07:15:19;;;;;;;17.10;8.75;;;;;;;;;;5004041;28;20057;-64
2021/11/29 07:17:47;;;;;;;13.98;7.70;;;;;;;;;;4997119;28;20147;-64
2021/11/29 07:20:16;;;;;;;18.63;9.27;;;;;;;;;;4981539;28;20480;-64
2021/11/29 07:22:44;;;;;;;18.83;8.25;;;;;;;;;;4996406;28;20143;-64
2021/11/29 07:25:13;;;;;;;20.83;9.00;;;;;;;;;;5000851;28;20046;-64
2021/11/29 07:27:41;;;;;;;16.55;7.88;;;;;;;;;;4996904;28;20516;-64
2021/11/29 07:30:13;;;;;;;20.92;8.32;;;;;;;;;;5002672;28;20072;-64
2021/11/29 07:32:42;;;;;;;20.25;9.98;;;;;;;;;;4999452;28;20050;-64
2021/11/29 07:35:11;;;;;;;19.63;8.40;;;;;;;;;;5002523;28;20567;-64
2021/11/29 07:37:39;;;;;;;17.50;7.95;;;;;;;;;;4999812;28;20069;-64
2021/11/29 07:40:08;;;;;;;19.60;8.65;;;;;;;;;;4997975;28;20046;-64
2021/11/29 07:42:37;;;;;;;21.15;8.50;;;;;;;;;;5011932;28;20049;-64
2021/11/29 07:45:06;;;;;;;21.30;8.13;;;;;;;;;;5012521;28;20042;-64
2021/11/29 07:47:36;;;;;;;19.45;9.27;;;;;;;;;;5019899;28;20054;-64
2021/11/29 07:50:04;;;;;;;24.45;8.77;;;;;;;;;;5009717;28;20473;-64
2021/11/29 07:52:33;;;;;;;18.08;8.70;;;;;;;;;;5024484;28;20381;-64
2021/11/29 07:55:03;;;;;;;20.98;9.60;;;;;;;;;;5005280;28;20452;-64
2021/11/29 07:57:31;;;;;;;21.48;8.45;;;;;;;;;;4996262;28;20081;-64
2021/11/29 08:00:04;;;;;;;27.20;10.27;;;;;;;;;;5005128;28;20080;-64
2021/11/29 08:02:32;;;;;;;18.60;8.52;;;;;;;;;;5012240;28;20123;-64
2021/11/29 08:05:02;;;;;;;15.57;7.97;;;;;;;;;;5006797;28;20484;-64
2021/11/29 08:07:31;;;;;;;16.58;8.20;;;;;;;;;;5010746;28;20464;-64
2021/11/29 08:10:00;;;;;;;27.13;9.65;;;;;;;;;;5008325;28;20069;-64
2021/11/29 08:12:29;;;;;;;21.05;9.00;;;;;;;;;;4995549;28;20191;-64
2021/11/29 08:14:57;;;;;;;20.23;9.15;;;;;;;;;;5010311;28;20050;-64
2021/11/29 08:17:26;;;;;;;27.20;11.25;;;;;;;;;;5009949;28;20054;-64
2021/11/29 08:19:55;;;;;;;24.05;9.73;;;;;;;;;;5010525;28;20548;-64
2021/11/29 08:22:25;;;;;;;24.75;8.80;;;;;;;;;;5006255;28;20041;-64
2021/11/29 08:24:54;;;;;;;20.33;8.85;;;;;;;;;;5014374;28;20038;-64
2021/11/29 08:27:22;;;;;;;17.30;9.20;;;;;;;;;;5003043;28;20069;-64
2021/11/29 08:29:51;;;;;;;20.83;9.43;;;;;;;;;;5010628;28;20049;-64
2021/11/29 08:32:20;;;;;;;21.27;9.60;;;;;;;;;;5007682;28;20038;-64
2021/11/29 08:34:48;;;;;;;22.88;9.98;;;;;;;;;;5010053;28;20482;-64
2021/11/29 08:37:17;;;;;;;20.58;8.73;;;;;;;;;;5001704;28;20046;-64
2021/11/29 08:39:47;;;;;;;18.20;8.15;;;;;;;;;;5002375;28;20050;-64
2021/11/29 08:42:16;;;;;;;22.35;11.05;;;;;;;;;;5002244;28;20056;-64
2021/11/29 08:44:44;;;;;;;23.92;9.90;;;;;;;;;;5012176;28;20037;-64
2021/11/29 08:47:13;;;;;;;19.17;8.23;;;;;;;;;;5004538;28;20064;-64
2021/11/29 08:49:43;;;;;;;20.70;9.07;;;;;;;;;;5009213;28;20048;-64
2021/11/29 08:52:12;;;;;;;18.85;7.93;;;;;;;;;;5005948;28;20097;-64
2021/11/29 08:54:41;;;;;;;18.23;7.50;;;;;;;;;;5005254;28;20077;-64
2021/11/29 08:57:12;;;;;;;20.30;8.13;;;;;;;;;;5004198;28;20892;-64
2021/11/29 08:59:41;;;;;;;19.83;8.30;;;;;;;;;;5010899;28;20038;-64
2021/11/29 09:02:09;;;;;;;19.35;9.25;;;;;;;;;;5009809;28;20045;-64
2021/11/29 09:04:38;;;;;;;20.40;9.18;;;;;;;;;;5007456;28;20088;-64
2021/11/29 09:07:07;;;;;;;17.40;7.97;;;;;;;;;;5010863;28;20096;-64
2021/11/29 09:09:36;;;;;;;21.70;8.50;;;;;;;;;;5003918;28;20077;-64
2021/11/29 09:12:05;;;;;;;25.73;8.65;;;;;;;;;;5010056;28;20124;-64
2021/11/29 09:14:35;;;;;;;16.85;7.55;;;;;;;;;;5010109;28;20061;-64
2021/11/29 09:17:09;;;;;;;17.17;8.13;;;;;;;;;;5011251;28;20144;-64
2021/11/29 09:19:38;;;;;;;20.10;7.68;;;;;;;;;;5005850;28;20050;-64
2021/11/29 09:22:06;;;;;;;14.70;7.25;;;;;;;;;;5007951;28;20507;-64
2021/11/29 09:24:35;;;;;;;22.05;9.02;;;;;;;;;;5005687;28;20050;-64
2021/11/29 09:27:04;;;;;;;17.35;8.00;;;;;;;;;;4999880;28;20141;-64
2021/11/29 09:29:33;;;;;;;16.13;6.88;;;;;;;;;;5006427;28;20116;-64
2021/11/29 09:32:04;;;;;;;17.85;8.10;;;;;;;;;;5002552;28;20100;-64
2021/11/29 09:34:37;;;;;;;17.58;7.35;;;;;;;;;;5008957;28;20111;-64
2021/11/29 09:37:06;;;;;;;20.45;8.35;;;;;;;;;;5011082;28;20049;-64
2021/11/29 09:39:35;;;;;;;17.95;7.72;;;;;;;;;;5009922;28;20053;-64
2021/11/29 09:42:04;;;;;;;23.15;9.77;;;;;;;;;;5008569;28;20042;-64
2021/11/29 09:44:33;;;;;;;19.83;8.32;;;;;;;;;;5002736;28;20856;-64
2021/11/29 09:47:04;;;;;;;24.45;8.77;;;;;;;;;;5009383;28;20046;-64
2021/11/29 09:49:33;;;;;;;25.15;9.90;;;;;;;;;;5007615;28;20162;-64
2021/11/29 09:52:02;;;;;;;22.77;8.07;;;;;;;;;;5014331;28;20103;-64
2021/11/29 09:54:30;;;;;;;23.95;9.45;;;;;;;;;;5009338;28;20050;-64
2021/11/29 09:56:59;;;;;;;23.15;8.95;;;;;;;;;;5006600;28;20508;-64
2021/11/29 09:59:29;;;;;;;18.13;8.30;;;;;;;;;;5004432;28;20060;-64
2021/11/29 10:01:57;;;;;;;20.13;7.93;;;;;;;;;;5000922;28;20050;-64
2021/11/29 10:04:28;;;;;;;22.95;10.25;;;;;;;;;;5004235;28;20179;-64
2021/11/29 10:06:59;;;;;;;20.83;9.63;;;;;;;;;;5000255;28;20417;-64
2021/11/29 10:09:29;;;;;;;23.88;10.13;;;;;;;;;;5004607;28;20046;-64
2021/11/29 10:11:59;;;;;;;20.88;10.02;;;;;;;;;;5002016;28;20058;-63
2021/11/29 10:14:28;;;;;;;24.40;9.73;;;;;;;;;;5004311;28;20054;-63
2021/11/29 10:17:00;;;;;;;22.50;9.35;;;;;;;;;;4999012;28;20054;-63
2021/11/29 10:19:34;;;;;;;21.10;9.13;;;;;;;;;;5007362;28;20490;-63
2021/11/29 10:22:13;;;;;;;23.10;9.88;;;;;;;;;;5003287;28;20054;-64
2021/11/29 10:24:42;;;;;;;19.00;9.00;;;;;;;;;;4998943;28;20362;-63
2021/11/29 10:27:11;;;;;;;22.77;9.70;;;;;;;;;;5007679;28;20517;-63
2021/11/29 10:29:40;;;;;;;19.23;8.93;;;;;;;;;;5006156;28;20046;-63
2021/11/29 10:32:09;;;;;;;20.20;8.43;;;;;;;;;;5008580;28;20046;-63
2021/11/29 10:34:39;;;;;;;23.27;8.63;;;;;;;;;;5007269;28;20401;-63
2021/11/29 10:37:11;;;;;;;22.65;9.07;;;;;;;;;;5007088;28;20045;-63
2021/11/29 10:39:41;;;;;;;22.52;9.80;;;;;;;;;;5001102;28;20064;-63
2021/11/29 10:42:12;;;;;;;18.35;8.88;;;;;;;;;;4998932;28;20133;-63
2021/11/29 10:44:43;;;;;;;20.27;8.38;;;;;;;;;;5006560;28;20125;-63
2021/11/29 10:47:13;;;;;;;27.33;8.98;;;;;;;;;;5007852;28;20088;-63
2021/11/29 10:49:44;;;;;;;23.02;8.85;;;;;;;;;;5006646;28;20133;-65
2021/11/29 10:52:17;;;;;;;20.92;8.15;;;;;;;;;;5004859;28;20547;-63
2021/11/29 10:54:46;;;;;;;15.95;8.15;;;;;;;;;;5006412;28;20056;-63
2021/11/29 10:57:17;;;;;;;20.63;8.43;;;;;;;;;;5000351;28;20081;-63
2021/11/29 10:59:46;;;;;;;17.90;8.48;;;;;;;;;;5002068;28;20378;-63
2021/11/29 11:02:21;;;;;;;18.20;8.55;;;;;;;;;;4997026;28;20053;-63
2021/11/29 11:05:04;;;;;;;19.65;8.55;;;;;;;;;;4996911;28;20112;-63
2021/11/29 11:07:35;;;;;;;20.88;9.02;;;;;;;;;;4997029;28;20652;-64
2021/11/29 11:10:06;;;;;;;27.23;9.30;;;;;;;;;;4997459;28;20046;-64
2021/11/29 11:12:37;;;;;;;21.85;8.40;;;;;;;;;;5005214;28;20113;-64
2021/11/29 11:15:09;;;;;;;17.58;8.43;;;;;;;;;;4995850;28;20133;-64
2021/11/29 11:17:59;;;;;;;17.73;7.72;;;;;;;;;;5000678;28;20208;-64
2021/11/29 11:20:29;;;;;;;18.85;8.68;;;;;;;;;;5002485;28;20038;-64
2021/11/29 11:22:58;;;;;;;18.60;7.72;;;;;;;;;;4998227;28;20049;-64
2021/11/29 11:25:27;;;;;;;21.90;8.80;;;;;;;;;;5001540;28;20041;-64
2021/11/29 11:27:59;;;;;;;27.38;9.50;;;;;;;;;;5002130;28;20960;-63
2021/11/29 11:30:29;;;;;;;19.52;9.32;;;;;;;;;;5001709;28;20512;-64
2021/11/29 11:32:59;;;;;;;22.02;9.05;;;;;;;;;;4996990;28;20128;-64
2021/11/29 11:35:31;;;;;;;21.27;9.93;;;;;;;;;;5002190;28;20536;-63
2021/11/29 11:38:01;;;;;;;25.92;10.63;;;;;;;;;;4998211;28;20053;-64
2021/11/29 11:40:30;;;;;;;20.77;9.77;;;;;;;;;;5000397;28;20077;-64
2021/11/29 11:43:00;;;;;;;26.33;9.82;;;;;;;;;;5007343;28;20050;-64
2021/11/29 11:45:29;;;;;;;20.88;8.95;;;;;;;;;;5009530;28;20050;-64
2021/11/29 11:47:59;;;;;;;21.02;9.07;;;;;;;;;;5004492;28;20058;-64
2021/11/29 11:50:33;;;;;;;19.50;9.05;;;;;;;;;;5006959;28;20464;-64
2021/11/29 11:53:02;;;;;;;20.13;8.80;;;;;;;;;;5002557;28;20486;-64
2021/11/29 11:55:32;;;;;;;18.58;8.90;;;;;;;;;;5004811;28;20137;-64
2021/11/29 11:58:01;;;;;;;18.30;8.50;;;;;;;;;;5004234;28;20061;-64
2021/11/29 12:00:33;;;;;;;20.13;8.27;;;;;;;;;;5006129;28;20052;-64
2021/11/29 12:03:13;;;;;;;23.50;8.65;;;;;;;;;;4995730;28;20056;-64
2021/11/29 12:05:50;;;;;;;18.65;8.23;;;;;;;;;;4999324;28;20045;-64
2021/11/29 12:08:36;;;;;;;11.32;4.50;;;;;;;;;;5000831;28;20045;-64
2021/11/29 12:11:08;;;;;;;6.70;3.28;;;;;;;;;;5000506;28;20156;-64
2021/11/29 12:13:44;;;;;;;8.10;3.28;;;;;;;;;;5001837;28;20050;-64
2021/11/29 12:16:14;;;;;;;4.80;2.65;;;;;;;;;;5002624;28;20418;-65
2021/11/29 12:18:47;;;;;;;5.35;2.08;;;;;;;;;;5007550;28;20058;-65
2021/11/29 12:21:20;;;;;;;5.90;2.97;;;;;;;;;;5002476;28;20061;-65
2021/11/29 12:23:50;;;;;;;7.68;3.05;;;;;;;;;;5006738;28;20061;-64
2021/11/29 12:26:20;;;;;;;6.30;3.28;;;;;;;;;;5006543;28;20049;-65
2021/11/29 12:28:49;;;;;;;9.25;4.03;;;;;;;;;;5008017;28;20077;-64
2021/11/29 12:31:36;;;;;;;14.50;4.28;;;;;;;;;;5010350;28;20093;-65
2021/11/29 12:34:08;;;;;;;13.27;4.97;;;;;;;;;;5009635;28;20140;-65
2021/11/29 12:36:56;;;;;;;12.50;4.68;;;;;;;;;;5001523;28;20544;-65
2021/11/29 12:39:43;;;;;;;12.63;5.28;;;;;;;;;;5007303;28;20042;-65
2021/11/29 12:42:36;;;;;;;10.75;5.20;;;;;;;;;;4996420;28;20120;-65
2021/11/29 12:45:12;;;;;;;14.90;5.38;;;;;;;;;;5009819;28;20124;-65
2021/11/29 12:47:41;;;;;;;13.30;4.97;;;;;;;;;;5001514;28;20041;-65
2021/11/29 12:50:25;;;;;;;14.30;6.10;;;;;;;;;;5003948;28;20061;-65
2021/11/29 12:53:07;;;;;;;12.75;5.65;;;;;;;;;;5002277;28;20069;-65
2021/11/29 12:55:36;;;;;;;14.35;5.78;;;;;;;;;;5006675;28;20045;-66
2021/11/29 12:58:18;;;;;;;14.05;6.03;;;;;;;;;;5008314;28;20060;-65
2021/11/29 13:00:47;;;;;;;15.13;6.32;;;;;;;;;;5009826;28;20493;-66
2021/11/29 13:03:17;;;;;;;13.20;5.18;;;;;;;;;;5008797;28;20410;-65
2021/11/29 13:05:46;;;;;;;11.15;4.65;;;;;;;;;;5004984;28;20073;-65
2021/11/29 13:08:19;;;;;;;13.63;6.07;;;;;;;;;;5007327;28;20490;-65
2021/11/29 13:10:59;;;;;;;13.23;5.53;;;;;;;;;;5002732;28;20454;-65
2021/11/29 13:13:32;;;;;;;11.48;5.05;;;;;;;;;;5002408;28;20053;-66
2021/11/29 13:16:03;;;;;;;12.23;5.25;;;;;;;;;;5009506;28;20073;-66
2021/11/29 13:18:56;;;;;;;10.48;5.10;;;;;;;;;;5003587;28;20052;-66
2021/11/29 13:21:26;;;;;;;16.05;5.18;;;;;;;;;;4994930;28;20042;-66
2021/11/29 13:23:57;;;;;;;11.13;4.97;;;;;;;;;;5001788;28;20053;-66
2021/11/29 13:26:27;;;;;;;11.65;5.07;;;;;;;;;;5018499;28;20046;-66
2021/11/29 13:28:59;;;;;;;15.00;5.72;;;;;;;;;;5009402;28;20077;-66
2021/11/29 13:31:29;;;;;;;14.85;5.72;;;;;;;;;;5009412;28;20507;-66
2021/11/29 13:33:59;;;;;;;14.38;4.97;;;;;;;;;;4997580;28;20544;-66
2021/11/29 13:36:39;;;;;;;13.00;5.57;;;;;;;;;;5008740;28;20092;-66
2021/11/29 13:39:15;;;;;;;18.48;5.68;;;;;;;;;;5010973;28;20053;-66
2021/11/29 13:41:45;;;;;;;13.38;4.57;;;;;;;;;;5006860;28;20140;-66
2021/11/29 13:44:26;;;;;;;13.88;5.45;;;;;;;;;;5010430;28;20054;-66
2021/11/29 13:47:12;;;;;;;14.38;6.05;;;;;;;;;;5002434;28;20311;-66
2021/11/29 13:49:43;;;;;;;9.07;4.30;;;;;;;;;;5007889;28;20109;-66
2021/11/29 13:52:13;;;;;;;17.85;5.55;;;;;;;;;;5009513;28;20080;-66
2021/11/29 13:54:50;;;;;;;11.68;5.18;;;;;;;;;;5007871;28;20701;-66
2021/11/29 13:57:29;;;;;;;14.20;5.53;;;;;;;;;;4998979;28;20057;-66
2021/11/29 14:00:07;;;;;;;14.63;4.68;;;;;;;;;;5004560;28;20057;-66
2021/11/29 14:02:35;;;;;;;10.57;4.63;;;;;;;;;;4994291;28;20046;-66
2021/11/29 14:05:05;;;;;;;14.93;4.88;;;;;;;;;;5008340;28;20054;-66
2021/11/29 14:07:49;;;;;;;9.68;4.00;;;;;;;;;;4999987;28;20650;-66
2021/11/29 14:10:18;;;;;;;11.57;3.97;;;;;;;;;;5008142;28;20056;-66
2021/11/29 14:12:50;;;;;;;13.32;3.95;;;;;;;;;;5008345;28;20053;-65
2021/11/29 14:15:20;;;;;;;10.23;4.70;;;;;;;;;;5008861;28;20045;-65
2021/11/29 14:17:51;;;;;;;9.50;4.35;;;;;;;;;;4997098;28;20061;-66
2021/11/29 14:20:20;;;;;;;14.10;4.80;;;;;;;;;;4996474;28;20497;-66
2021/11/29 14:22:50;;;;;;;11.68;4.60;;;;;;;;;;5009108;28;20049;-66
2021/11/29 14:25:19;;;;;;;10.93;4.65;;;;;;;;;;5008490;28;20169;-66
2021/11/29 14:27:48;;;;;;;8.95;4.35;;;;;;;;;;5005978;28;20073;-66
2021/11/29 14:30:17;;;;;;;12.75;4.85;;;;;;;;;;4990676;28;20456;-66
2021/11/29 14:32:47;;;;;;;11.30;4.82;;;;;;;;;;5006629;28;20336;-66
2021/11/29 14:35:16;;;;;;;11.55;4.00;;;;;;;;;;5002353;28;20515;-65
2021/11/29 14:37:45;;;;;;;10.75;4.75;;;;;;;;;;4999015;28;20077;-65
2021/11/29 14:40:16;;;;;;;13.52;4.97;;;;;;;;;;4990714;28;20109;-65
2021/11/29 14:42:50;;;;;;;9.73;4.95;;;;;;;;;;5007761;28;20375;-65
2021/11/29 14:45:20;;;;;;;10.15;4.35;;;;;;;;;;5006908;28;20612;-65
2021/11/29 14:47:53;;;;;;;8.40;3.50;;;;;;;;;;4999401;28;20042;-65